Terminal Aerodrome Forecast
Issued by NWS Louisville, KY

Home | Current Version | Previous Version | Text Only | Print | Product List | Glossary On
Versions: 1 2 3 4 5 6 7 8 9 10 11 12 13 14 15
224
FTUS43 KLMK 241140
TAFSDF
TAF
KSDF 241140Z 2412/2518 29008KT P6SM OVC015
     FM241700 26004KT P6SM BKN028
     FM242000 20005KT P6SM SCT035
     FM250000 15006KT P6SM SCT250
     FM250900 17008KT P6SM BKN040=

USA.gov is the U.S. government's official web portal to all federal, state and local government web resources and services.